• Join FlightAware (Why Join?)
  • Login
  • US Flag 
12:25PM EST


 

Airport Tracker/Info


-or-


 

Live Flight TrackerFlight Track Log ✈ CPT368 ✈ 13-May-2013 ✈ PHMK / MKK - PHNL

Flight Track Log - Related Links

Times and Time Zones

All times are in EDT time to prevent confusion due to time zone crossing. See the CPT368 flight status page for this flight to view local times or setup timezone preferences in your user account.

Time Position Orientation Groundspeed Altitude Reporting Facility
EDT Latitude Longitude Course Direction KTS MPH feet Rate Location/Type
12:39PM 21.1500 -157.0833 270° West 60 69 1,300  Level Honolulu Center
12:40PM 21.1500 -157.1000 270° West 110 127 2,300 960 Climbing Honolulu Center
12:41PM 21.1333 -157.1333 242° Southwest 140 161 3,300 840 Climbing Honolulu Center
12:42PM 21.1333 -157.1833 270° West 150 173 4,000 300 Climbing Honolulu Center
12:43PM 21.1333 -157.2333 270° West 170 196 4,000  Level Honolulu Center
12:44PM 21.1167 -157.2833 250° West 170 196 4,000  Level Honolulu Center
12:45PM 21.1167 -157.3333 270° West 170 196 4,000  Level Honolulu Center
12:46PM 21.1333 -157.3833 290° West 170 196 4,000  Level Honolulu Center
12:47PM 21.1333 -157.4333 270° West 170 196 4,000 -120 Level Honolulu Center
12:48PM 21.1333 -157.4833 270° West 180 207 3,800 -360 Descending Honolulu Center
12:49PM 21.1333 -157.5500 270° West 180 207 3,300 -600 Descending Honolulu Center
12:50PM 21.1333 -157.6000 270° West 180 207 2,700 -600 Descending Honolulu Center
12:51PM 21.1333 -157.6500 270° West 170 196 2,100 -600 Descending Honolulu Center
12:52PM 21.1333 -157.7000 270° West 180 207 1,600 -300 Descending Honolulu Center
12:53PM 21.1333 -157.7500 270° West 160 184 1,500 -60 Descending Honolulu Center
12:54PM 21.1333 -157.8000 270° West 180 207 1,500  Level Honolulu Center
12:55PM 21.1333 -157.8500 270° West 160 184 1,500  Level Honolulu Center
12:56PM 21.1500 -157.9000 290° West 170 196 1,500  Level Honolulu Center
12:57PM 21.1667 -157.9333 298° West 160 184 1,500 -120 Level Honolulu Center
12:58PM 21.2167 -157.9333 360° North 150 173 1,300 -240 Descending Honolulu Center
12:59PM 21.2500 -157.9500 335° Northwest 140 161 1,100 -420 Descending Honolulu Center
01:00PM 21.2833 -157.9333 25° Northeast 120 138 500 -600 Descending Honolulu Center